sensor_id;sensor_type;location;lat;lon;timestamp;P1;durP1;ratioP1;P2;durP2;ratioP2
37647;SDS011;23490;53.656;10.076;2022-12-31T00:01:00;9.95;;;6.18;;
37647;SDS011;23490;53.656;10.076;2022-12-31T00:03:26;8.50;;;6.05;;
37647;SDS011;23490;53.656;10.076;2022-12-31T00:05:52;10.30;;;6.05;;
37647;SDS011;23490;53.656;10.076;2022-12-31T00:08:17;10.13;;;6.20;;
37647;SDS011;23490;53.656;10.076;2022-12-31T00:10:43;9.77;;;6.00;;
37647;SDS011;23490;53.656;10.076;2022-12-31T00:13:09;9.30;;;5.90;;
37647;SDS011;23490;53.656;10.076;2022-12-31T00:15:35;9.45;;;5.88;;
37647;SDS011;23490;53.656;10.076;2022-12-31T00:18:01;10.07;;;6.72;;
37647;SDS011;23490;53.656;10.076;2022-12-31T00:20:26;9.50;;;6.47;;
37647;SDS011;23490;53.656;10.076;2022-12-31T00:22:52;10.32;;;7.13;;
37647;SDS011;23490;53.656;10.076;2022-12-31T00:25:17;8.75;;;6.75;;
37647;SDS011;23490;53.656;10.076;2022-12-31T00:27:43;8.25;;;6.25;;
37647;SDS011;23490;53.656;10.076;2022-12-31T00:30:08;10.52;;;6.45;;
37647;SDS011;23490;53.656;10.076;2022-12-31T00:32:34;9.10;;;6.63;;
37647;SDS011;23490;53.656;10.076;2022-12-31T00:34:59;10.00;;;6.97;;
37647;SDS011;23490;53.656;10.076;2022-12-31T00:37:25;9.90;;;6.80;;
37647;SDS011;23490;53.656;10.076;2022-12-31T00:39:50;10.02;;;6.53;;
37647;SDS011;23490;53.656;10.076;2022-12-31T00:42:15;9.73;;;6.95;;
37647;SDS011;23490;53.656;10.076;2022-12-31T00:44:41;11.57;;;7.15;;
37647;SDS011;23490;53.656;10.076;2022-12-31T00:47:06;9.15;;;6.70;;
37647;SDS011;23490;53.656;10.076;2022-12-31T00:49:31;9.77;;;7.07;;
37647;SDS011;23490;53.656;10.076;2022-12-31T00:51:57;8.80;;;6.45;;
37647;SDS011;23490;53.656;10.076;2022-12-31T00:54:22;8.45;;;6.20;;
37647;SDS011;23490;53.656;10.076;2022-12-31T00:56:47;8.90;;;6.18;;
37647;SDS011;23490;53.656;10.076;2022-12-31T00:59:13;9.27;;;6.47;;
37647;SDS011;23490;53.656;10.076;2022-12-31T01:01:38;12.13;;;6.18;;
37647;SDS011;23490;53.656;10.076;2022-12-31T01:04:08;9.32;;;6.57;;
37647;SDS011;23490;53.656;10.076;2022-12-31T01:06:36;9.45;;;6.25;;
37647;SDS011;23490;53.656;10.076;2022-12-31T01:09:02;8.07;;;5.78;;
37647;SDS011;23490;53.656;10.076;2022-12-31T01:11:27;9.52;;;6.00;;
37647;SDS011;23490;53.656;10.076;2022-12-31T01:16:35;9.02;;;5.60;;
37647;SDS011;23490;53.656;10.076;2022-12-31T01:19:04;7.60;;;5.47;;
37647;SDS011;23490;53.656;10.076;2022-12-31T01:21:31;9.45;;;5.50;;
37647;SDS011;23490;53.656;10.076;2022-12-31T01:23:57;7.90;;;5.28;;
37647;SDS011;23490;53.656;10.076;2022-12-31T01:26:23;6.35;;;4.75;;
37647;SDS011;23490;53.656;10.076;2022-12-31T01:28:48;7.50;;;5.68;;
37647;SDS011;23490;53.656;10.076;2022-12-31T01:31:14;8.18;;;5.18;;
37647;SDS011;23490;53.656;10.076;2022-12-31T01:33:42;13.43;;;5.65;;
37647;SDS011;23490;53.656;10.076;2022-12-31T01:36:09;8.00;;;4.63;;
37647;SDS011;23490;53.656;10.076;2022-12-31T01:38:36;9.02;;;4.50;;
37647;SDS011;23490;53.656;10.076;2022-12-31T01:41:02;7.30;;;4.90;;
37647;SDS011;23490;53.656;10.076;2022-12-31T01:43:42;8.13;;;4.93;;
37647;SDS011;23490;53.656;10.076;2022-12-31T01:46:11;8.40;;;4.80;;
37647;SDS011;23490;53.656;10.076;2022-12-31T01:48:41;7.03;;;4.40;;
37647;SDS011;23490;53.656;10.076;2022-12-31T01:51:06;7.05;;;4.75;;
37647;SDS011;23490;53.656;10.076;2022-12-31T01:53:33;6.53;;;4.15;;
37647;SDS011;23490;53.656;10.076;2022-12-31T01:55:59;8.68;;;4.90;;
37647;SDS011;23490;53.656;10.076;2022-12-31T01:58:30;7.28;;;4.30;;
37647;SDS011;23490;53.656;10.076;2022-12-31T02:01:02;6.53;;;4.40;;
37647;SDS011;23490;53.656;10.076;2022-12-31T02:03:28;7.22;;;4.30;;
37647;SDS011;23490;53.656;10.076;2022-12-31T02:06:07;6.97;;;4.50;;
37647;SDS011;23490;53.656;10.076;2022-12-31T02:08:39;8.88;;;4.38;;
37647;SDS011;23490;53.656;10.076;2022-12-31T02:13:52;6.75;;;4.57;;
37647;SDS011;23490;53.656;10.076;2022-12-31T02:18:54;6.80;;;4.28;;
37647;SDS011;23490;53.656;10.076;2022-12-31T02:27:02;6.57;;;4.45;;
37647;SDS011;23490;53.656;10.076;2022-12-31T02:35:25;8.13;;;4.80;;
37647;SDS011;23490;53.656;10.076;2022-12-31T02:38:11;6.85;;;4.50;;
37647;SDS011;23490;53.656;10.076;2022-12-31T02:40:42;8.43;;;4.43;;
37647;SDS011;23490;53.656;10.076;2022-12-31T02:43:08;7.57;;;4.30;;
37647;SDS011;23490;53.656;10.076;2022-12-31T02:45:37;8.73;;;4.95;;
37647;SDS011;23490;53.656;10.076;2022-12-31T02:51:06;7.97;;;4.88;;
37647;SDS011;23490;53.656;10.076;2022-12-31T02:53:45;7.18;;;4.40;;
37647;SDS011;23490;53.656;10.076;2022-12-31T02:56:22;7.97;;;4.72;;
37647;SDS011;23490;53.656;10.076;2022-12-31T02:59:00;7.47;;;4.32;;
37647;SDS011;23490;53.656;10.076;2022-12-31T03:02:03;8.15;;;4.93;;
37647;SDS011;23490;53.656;10.076;2022-12-31T03:04:51;6.40;;;4.35;;
37647;SDS011;23490;53.656;10.076;2022-12-31T03:07:24;8.35;;;4.47;;
37647;SDS011;23490;53.656;10.076;2022-12-31T03:09:51;7.43;;;4.50;;
37647;SDS011;23490;53.656;10.076;2022-12-31T03:12:18;9.00;;;4.50;;
37647;SDS011;23490;53.656;10.076;2022-12-31T03:15:05;7.25;;;4.35;;
37647;SDS011;23490;53.656;10.076;2022-12-31T03:20:47;8.40;;;4.47;;
37647;SDS011;23490;53.656;10.076;2022-12-31T03:23:34;6.35;;;4.10;;
37647;SDS011;23490;53.656;10.076;2022-12-31T03:26:00;7.15;;;3.95;;
37647;SDS011;23490;53.656;10.076;2022-12-31T03:28:27;7.40;;;4.30;;
37647;SDS011;23490;53.656;10.076;2022-12-31T03:30:55;7.55;;;4.05;;
37647;SDS011;23490;53.656;10.076;2022-12-31T03:33:22;7.82;;;4.53;;
37647;SDS011;23490;53.656;10.076;2022-12-31T03:35:49;7.70;;;3.72;;
37647;SDS011;23490;53.656;10.076;2022-12-31T03:38:15;7.07;;;3.78;;
37647;SDS011;23490;53.656;10.076;2022-12-31T03:40:43;8.52;;;3.90;;
37647;SDS011;23490;53.656;10.076;2022-12-31T03:43:17;7.90;;;4.20;;
37647;SDS011;23490;53.656;10.076;2022-12-31T03:45:46;7.25;;;3.90;;
37647;SDS011;23490;53.656;10.076;2022-12-31T03:48:13;7.28;;;4.03;;
37647;SDS011;23490;53.656;10.076;2022-12-31T03:50:38;5.72;;;3.45;;
37647;SDS011;23490;53.656;10.076;2022-12-31T03:53:04;6.10;;;3.17;;
37647;SDS011;23490;53.656;10.076;2022-12-31T03:55:30;5.88;;;3.33;;
37647;SDS011;23490;53.656;10.076;2022-12-31T03:57:55;6.30;;;3.50;;
37647;SDS011;23490;53.656;10.076;2022-12-31T04:00:21;7.07;;;3.10;;
37647;SDS011;23490;53.656;10.076;2022-12-31T04:02:46;8.40;;;2.80;;
37647;SDS011;23490;53.656;10.076;2022-12-31T04:05:13;5.47;;;2.90;;
37647;SDS011;23490;53.656;10.076;2022-12-31T04:07:39;4.75;;;2.83;;
37647;SDS011;23490;53.656;10.076;2022-12-31T04:10:05;4.57;;;2.80;;
37647;SDS011;23490;53.656;10.076;2022-12-31T04:12:32;5.28;;;3.15;;
37647;SDS011;23490;53.656;10.076;2022-12-31T04:14:58;6.25;;;3.60;;
37647;SDS011;23490;53.656;10.076;2022-12-31T04:17:24;5.63;;;3.20;;
37647;SDS011;23490;53.656;10.076;2022-12-31T04:19:49;6.13;;;3.40;;
37647;SDS011;23490;53.656;10.076;2022-12-31T04:22:15;7.43;;;3.47;;
37647;SDS011;23490;53.656;10.076;2022-12-31T04:24:41;7.40;;;3.22;;
37647;SDS011;23490;53.656;10.076;2022-12-31T04:27:07;6.60;;;3.90;;
37647;SDS011;23490;53.656;10.076;2022-12-31T04:29:33;8.38;;;3.90;;
37647;SDS011;23490;53.656;10.076;2022-12-31T04:31:59;6.97;;;4.30;;
37647;SDS011;23490;53.656;10.076;2022-12-31T04:34:24;7.20;;;3.75;;
37647;SDS011;23490;53.656;10.076;2022-12-31T04:36:49;8.85;;;4.47;;
37647;SDS011;23490;53.656;10.076;2022-12-31T04:39:15;5.60;;;3.38;;
37647;SDS011;23490;53.656;10.076;2022-12-31T04:41:40;7.50;;;4.43;;
37647;SDS011;23490;53.656;10.076;2022-12-31T04:44:06;6.90;;;4.10;;
37647;SDS011;23490;53.656;10.076;2022-12-31T04:46:32;9.05;;;4.18;;
37647;SDS011;23490;53.656;10.076;2022-12-31T04:48:58;7.93;;;4.70;;
37647;SDS011;23490;53.656;10.076;2022-12-31T04:51:24;9.10;;;4.53;;
37647;SDS011;23490;53.656;10.076;2022-12-31T04:53:51;6.82;;;4.55;;
37647;SDS011;23490;53.656;10.076;2022-12-31T04:56:17;7.22;;;4.53;;
37647;SDS011;23490;53.656;10.076;2022-12-31T04:58:43;7.68;;;4.90;;
37647;SDS011;23490;53.656;10.076;2022-12-31T05:01:09;9.80;;;4.65;;
37647;SDS011;23490;53.656;10.076;2022-12-31T05:03:35;9.20;;;4.28;;
37647;SDS011;23490;53.656;10.076;2022-12-31T05:06:02;6.47;;;4.15;;
37647;SDS011;23490;53.656;10.076;2022-12-31T05:08:30;6.22;;;3.72;;
37647;SDS011;23490;53.656;10.076;2022-12-31T05:10:56;7.45;;;3.83;;
37647;SDS011;23490;53.656;10.076;2022-12-31T05:13:21;5.25;;;3.15;;
37647;SDS011;23490;53.656;10.076;2022-12-31T05:15:47;6.53;;;3.38;;
37647;SDS011;23490;53.656;10.076;2022-12-31T05:18:12;5.53;;;3.10;;
37647;SDS011;23490;53.656;10.076;2022-12-31T05:20:38;6.25;;;3.13;;
37647;SDS011;23490;53.656;10.076;2022-12-31T05:23:03;6.38;;;3.08;;
37647;SDS011;23490;53.656;10.076;2022-12-31T05:25:29;6.50;;;3.38;;
37647;SDS011;23490;53.656;10.076;2022-12-31T05:27:54;5.68;;;2.85;;
37647;SDS011;23490;53.656;10.076;2022-12-31T05:30:20;4.68;;;2.80;;
37647;SDS011;23490;53.656;10.076;2022-12-31T05:32:47;5.57;;;2.50;;
37647;SDS011;23490;53.656;10.076;2022-12-31T05:35:13;6.35;;;3.15;;
37647;SDS011;23490;53.656;10.076;2022-12-31T05:37:38;5.18;;;2.90;;
37647;SDS011;23490;53.656;10.076;2022-12-31T05:40:04;4.97;;;3.15;;
37647;SDS011;23490;53.656;10.076;2022-12-31T05:42:30;5.20;;;2.92;;
37647;SDS011;23490;53.656;10.076;2022-12-31T05:44:55;5.60;;;2.67;;
37647;SDS011;23490;53.656;10.076;2022-12-31T05:47:20;4.25;;;2.63;;
37647;SDS011;23490;53.656;10.076;2022-12-31T05:49:46;6.75;;;2.80;;
37647;SDS011;23490;53.656;10.076;2022-12-31T05:52:11;4.88;;;2.78;;
37647;SDS011;23490;53.656;10.076;2022-12-31T05:54:36;4.93;;;2.60;;
37647;SDS011;23490;53.656;10.076;2022-12-31T05:57:02;4.78;;;2.47;;
37647;SDS011;23490;53.656;10.076;2022-12-31T05:59:28;4.75;;;2.42;;
37647;SDS011;23490;53.656;10.076;2022-12-31T06:01:54;3.78;;;2.28;;
37647;SDS011;23490;53.656;10.076;2022-12-31T06:04:19;3.53;;;2.40;;
37647;SDS011;23490;53.656;10.076;2022-12-31T06:06:44;4.10;;;2.33;;
37647;SDS011;23490;53.656;10.076;2022-12-31T06:09:10;5.82;;;2.17;;
37647;SDS011;23490;53.656;10.076;2022-12-31T06:11:35;5.47;;;2.42;;
37647;SDS011;23490;53.656;10.076;2022-12-31T06:14:01;5.20;;;2.25;;
37647;SDS011;23490;53.656;10.076;2022-12-31T06:16:27;5.30;;;2.58;;
37647;SDS011;23490;53.656;10.076;2022-12-31T06:18:52;3.75;;;1.88;;
37647;SDS011;23490;53.656;10.076;2022-12-31T06:21:18;5.13;;;2.03;;
37647;SDS011;23490;53.656;10.076;2022-12-31T06:23:45;3.15;;;1.98;;
37647;SDS011;23490;53.656;10.076;2022-12-31T06:26:11;3.33;;;2.00;;
37647;SDS011;23490;53.656;10.076;2022-12-31T06:28:36;3.67;;;1.92;;
37647;SDS011;23490;53.656;10.076;2022-12-31T06:31:03;2.92;;;1.77;;
37647;SDS011;23490;53.656;10.076;2022-12-31T06:33:29;3.33;;;1.67;;
37647;SDS011;23490;53.656;10.076;2022-12-31T06:35:56;3.92;;;1.63;;
37647;SDS011;23490;53.656;10.076;2022-12-31T06:38:23;2.67;;;1.52;;
37647;SDS011;23490;53.656;10.076;2022-12-31T06:40:48;2.17;;;1.30;;
37647;SDS011;23490;53.656;10.076;2022-12-31T06:43:14;2.65;;;1.40;;
37647;SDS011;23490;53.656;10.076;2022-12-31T06:45:39;2.83;;;1.15;;
37647;SDS011;23490;53.656;10.076;2022-12-31T06:48:04;2.53;;;1.00;;
37647;SDS011;23490;53.656;10.076;2022-12-31T06:50:30;1.33;;;1.00;;
37647;SDS011;23490;53.656;10.076;2022-12-31T06:52:55;1.75;;;0.98;;
37647;SDS011;23490;53.656;10.076;2022-12-31T06:55:21;1.98;;;1.10;;
37647;SDS011;23490;53.656;10.076;2022-12-31T06:57:47;2.65;;;1.10;;
37647;SDS011;23490;53.656;10.076;2022-12-31T07:00:12;1.00;;;0.75;;
37647;SDS011;23490;53.656;10.076;2022-12-31T07:08:05;2.05;;;1.08;;
37647;SDS011;23490;53.656;10.076;2022-12-31T07:10:53;1.15;;;0.80;;
37647;SDS011;23490;53.656;10.076;2022-12-31T07:16:24;2.15;;;0.90;;
37647;SDS011;23490;53.656;10.076;2022-12-31T07:21:43;2.17;;;1.02;;
37647;SDS011;23490;53.656;10.076;2022-12-31T07:24:10;2.13;;;1.00;;
37647;SDS011;23490;53.656;10.076;2022-12-31T07:26:48;1.85;;;0.90;;
37647;SDS011;23490;53.656;10.076;2022-12-31T07:43:07;2.72;;;0.70;;
37647;SDS011;23490;53.656;10.076;2022-12-31T07:45:45;1.42;;;0.70;;
37647;SDS011;23490;53.656;10.076;2022-12-31T07:48:29;0.90;;;0.75;;
37647;SDS011;23490;53.656;10.076;2022-12-31T07:50:55;2.03;;;0.90;;
37647;SDS011;23490;53.656;10.076;2022-12-31T07:53:22;1.17;;;0.80;;
37647;SDS011;23490;53.656;10.076;2022-12-31T07:55:50;1.92;;;0.82;;
37647;SDS011;23490;53.656;10.076;2022-12-31T07:58:31;1.90;;;0.88;;
37647;SDS011;23490;53.656;10.076;2022-12-31T08:01:12;1.05;;;0.60;;
37647;SDS011;23490;53.656;10.076;2022-12-31T08:06:24;3.13;;;0.80;;
37647;SDS011;23490;53.656;10.076;2022-12-31T08:11:58;1.45;;;0.60;;
37647;SDS011;23490;53.656;10.076;2022-12-31T08:14:26;1.38;;;0.68;;
37647;SDS011;23490;53.656;10.076;2022-12-31T08:16:53;2.97;;;0.80;;
37647;SDS011;23490;53.656;10.076;2022-12-31T08:21:59;1.05;;;0.40;;
37647;SDS011;23490;53.656;10.076;2022-12-31T08:27:11;0.85;;;0.40;;
37647;SDS011;23490;53.656;10.076;2022-12-31T08:32:41;2.05;;;0.90;;
37647;SDS011;23490;53.656;10.076;2022-12-31T08:38:05;1.50;;;0.60;;
37647;SDS011;23490;53.656;10.076;2022-12-31T08:40:47;1.60;;;0.80;;
37647;SDS011;23490;53.656;10.076;2022-12-31T08:46:22;2.50;;;1.17;;
37647;SDS011;23490;53.656;10.076;2022-12-31T08:48:52;5.45;;;1.58;;
37647;SDS011;23490;53.656;10.076;2022-12-31T08:51:19;1.45;;;0.80;;
37647;SDS011;23490;53.656;10.076;2022-12-31T08:53:46;1.23;;;0.80;;
37647;SDS011;23490;53.656;10.076;2022-12-31T08:56:20;1.50;;;0.90;;
37647;SDS011;23490;53.656;10.076;2022-12-31T09:01:27;2.05;;;1.02;;
37647;SDS011;23490;53.656;10.076;2022-12-31T09:07:13;1.27;;;0.73;;
37647;SDS011;23490;53.656;10.076;2022-12-31T09:15:36;1.23;;;0.68;;
37647;SDS011;23490;53.656;10.076;2022-12-31T09:18:08;1.48;;;0.85;;
37647;SDS011;23490;53.656;10.076;2022-12-31T09:20:36;3.75;;;1.00;;
37647;SDS011;23490;53.656;10.076;2022-12-31T09:23:02;2.95;;;0.90;;
37647;SDS011;23490;53.656;10.076;2022-12-31T09:25:28;2.30;;;0.95;;
37647;SDS011;23490;53.656;10.076;2022-12-31T09:30:40;2.40;;;0.93;;
37647;SDS011;23490;53.656;10.076;2022-12-31T09:33:22;3.38;;;1.02;;
37647;SDS011;23490;53.656;10.076;2022-12-31T09:36:00;2.45;;;1.33;;
37647;SDS011;23490;53.656;10.076;2022-12-31T09:38:34;3.53;;;1.30;;
37647;SDS011;23490;53.656;10.076;2022-12-31T09:41:15;2.35;;;1.05;;
37647;SDS011;23490;53.656;10.076;2022-12-31T09:47:00;2.50;;;1.33;;
37647;SDS011;23490;53.656;10.076;2022-12-31T09:50:00;3.80;;;1.98;;
37647;SDS011;23490;53.656;10.076;2022-12-31T09:53:03;2.88;;;1.80;;
37647;SDS011;23490;53.656;10.076;2022-12-31T09:55:39;2.90;;;1.77;;
37647;SDS011;23490;53.656;10.076;2022-12-31T09:58:11;3.72;;;2.25;;
37647;SDS011;23490;53.656;10.076;2022-12-31T10:00:46;4.68;;;2.55;;
37647;SDS011;23490;53.656;10.076;2022-12-31T10:09:00;6.25;;;2.70;;
37647;SDS011;23490;53.656;10.076;2022-12-31T10:18:02;6.47;;;3.40;;
37647;SDS011;23490;53.656;10.076;2022-12-31T10:20:53;7.15;;;3.67;;
37647;SDS011;23490;53.656;10.076;2022-12-31T10:26:28;4.28;;;2.85;;
37647;SDS011;23490;53.656;10.076;2022-12-31T10:31:54;6.63;;;3.25;;
37647;SDS011;23490;53.656;10.076;2022-12-31T10:34:59;6.57;;;2.80;;
37647;SDS011;23490;53.656;10.076;2022-12-31T10:40:44;6.20;;;2.95;;
37647;SDS011;23490;53.656;10.076;2022-12-31T10:57:28;2.85;;;1.50;;
37647;SDS011;23490;53.656;10.076;2022-12-31T11:00:17;2.85;;;1.10;;
37647;SDS011;23490;53.656;10.076;2022-12-31T11:02:51;2.28;;;1.25;;
37647;SDS011;23490;53.656;10.076;2022-12-31T11:11:43;2.38;;;1.20;;
37647;SDS011;23490;53.656;10.076;2022-12-31T11:22:24;2.55;;;1.50;;
37647;SDS011;23490;53.656;10.076;2022-12-31T11:25:12;2.00;;;1.20;;
37647;SDS011;23490;53.656;10.076;2022-12-31T11:36:07;2.33;;;1.27;;
37647;SDS011;23490;53.656;10.076;2022-12-31T11:38:48;2.65;;;1.42;;
37647;SDS011;23490;53.656;10.076;2022-12-31T11:44:02;2.53;;;1.50;;
37647;SDS011;23490;53.656;10.076;2022-12-31T11:46:42;2.67;;;1.42;;
37647;SDS011;23490;53.656;10.076;2022-12-31T11:57:21;1.67;;;1.10;;
37647;SDS011;23490;53.656;10.076;2022-12-31T12:00:01;4.65;;;2.47;;
37647;SDS011;23490;53.656;10.076;2022-12-31T12:02:36;2.65;;;1.75;;
37647;SDS011;23490;53.656;10.076;2022-12-31T12:05:07;4.18;;;1.40;;
37647;SDS011;23490;53.656;10.076;2022-12-31T12:07:37;2.72;;;1.70;;
37647;SDS011;23490;53.656;10.076;2022-12-31T12:10:05;3.35;;;1.95;;
37647;SDS011;23490;53.656;10.076;2022-12-31T12:12:41;3.70;;;1.50;;
37647;SDS011;23490;53.656;10.076;2022-12-31T12:15:08;3.08;;;1.80;;
37647;SDS011;23490;53.656;10.076;2022-12-31T12:17:35;1.85;;;1.15;;
37647;SDS011;23490;53.656;10.076;2022-12-31T12:20:02;3.28;;;1.30;;
37647;SDS011;23490;53.656;10.076;2022-12-31T12:22:49;1.55;;;1.10;;
37647;SDS011;23490;53.656;10.076;2022-12-31T12:25:18;2.28;;;1.20;;
37647;SDS011;23490;53.656;10.076;2022-12-31T12:27:45;1.70;;;1.02;;
37647;SDS011;23490;53.656;10.076;2022-12-31T12:30:21;1.38;;;0.90;;
37647;SDS011;23490;53.656;10.076;2022-12-31T12:35:22;1.10;;;0.70;;
37647;SDS011;23490;53.656;10.076;2022-12-31T12:38:02;1.27;;;0.82;;
37647;SDS011;23490;53.656;10.076;2022-12-31T12:40:27;1.05;;;0.60;;
37647;SDS011;23490;53.656;10.076;2022-12-31T12:42:53;0.93;;;0.57;;
37647;SDS011;23490;53.656;10.076;2022-12-31T12:45:20;1.38;;;0.50;;
37647;SDS011;23490;53.656;10.076;2022-12-31T12:47:49;1.52;;;0.52;;
37647;SDS011;23490;53.656;10.076;2022-12-31T12:50:21;0.55;;;0.50;;
37647;SDS011;23490;53.656;10.076;2022-12-31T13:09:46;2.42;;;0.70;;
37647;SDS011;23490;53.656;10.076;2022-12-31T13:12:27;1.77;;;0.60;;
37647;SDS011;23490;53.656;10.076;2022-12-31T13:15:02;2.22;;;0.77;;
37647;SDS011;23490;53.656;10.076;2022-12-31T13:20:28;2.15;;;0.70;;
37647;SDS011;23490;53.656;10.076;2022-12-31T13:25:53;0.80;;;0.50;;
37647;SDS011;23490;53.656;10.076;2022-12-31T13:28:28;0.82;;;0.80;;
37647;SDS011;23490;53.656;10.076;2022-12-31T13:31:00;1.67;;;1.05;;
37647;SDS011;23490;53.656;10.076;2022-12-31T13:33:31;0.95;;;0.85;;
37647;SDS011;23490;53.656;10.076;2022-12-31T13:36:01;3.47;;;0.85;;
37647;SDS011;23490;53.656;10.076;2022-12-31T13:38:31;2.40;;;0.98;;
37647;SDS011;23490;53.656;10.076;2022-12-31T13:43:40;39.38;;;26.95;;
37647;SDS011;23490;53.656;10.076;2022-12-31T13:46:42;2.25;;;1.27;;
37647;SDS011;23490;53.656;10.076;2022-12-31T13:52:08;1.55;;;0.80;;
37647;SDS011;23490;53.656;10.076;2022-12-31T14:01:21;2.22;;;1.20;;
37647;SDS011;23490;53.656;10.076;2022-12-31T14:03:58;1.15;;;0.60;;
37647;SDS011;23490;53.656;10.076;2022-12-31T14:06:37;1.23;;;0.60;;
37647;SDS011;23490;53.656;10.076;2022-12-31T14:09:21;3.13;;;1.00;;
37647;SDS011;23490;53.656;10.076;2022-12-31T14:14:41;3.00;;;1.33;;
37647;SDS011;23490;53.656;10.076;2022-12-31T14:22:55;1.50;;;1.08;;
37647;SDS011;23490;53.656;10.076;2022-12-31T14:25:46;2.97;;;1.67;;
37647;SDS011;23490;53.656;10.076;2022-12-31T14:28:17;3.13;;;1.48;;
37647;SDS011;23490;53.656;10.076;2022-12-31T14:30:47;3.28;;;1.40;;
37647;SDS011;23490;53.656;10.076;2022-12-31T14:42:29;4.25;;;2.33;;
37647;SDS011;23490;53.656;10.076;2022-12-31T14:48:00;6.03;;;2.80;;
37647;SDS011;23490;53.656;10.076;2022-12-31T14:50:53;6.15;;;2.60;;
37647;SDS011;23490;53.656;10.076;2022-12-31T14:53:24;5.40;;;2.65;;
37647;SDS011;23490;53.656;10.076;2022-12-31T14:55:57;4.50;;;2.70;;
37647;SDS011;23490;53.656;10.076;2022-12-31T14:58:39;4.80;;;2.22;;
37647;SDS011;23490;53.656;10.076;2022-12-31T15:03:41;5.97;;;2.58;;
37647;SDS011;23490;53.656;10.076;2022-12-31T15:11:57;6.50;;;3.83;;
37647;SDS011;23490;53.656;10.076;2022-12-31T15:16:57;6.22;;;3.65;;
37647;SDS011;23490;53.656;10.076;2022-12-31T15:22:36;6.72;;;3.50;;
37647;SDS011;23490;53.656;10.076;2022-12-31T15:25:19;13.65;;;8.05;;
37647;SDS011;23490;53.656;10.076;2022-12-31T15:27:48;6.57;;;3.97;;
37647;SDS011;23490;53.656;10.076;2022-12-31T15:30:34;9.00;;;3.20;;
37647;SDS011;23490;53.656;10.076;2022-12-31T15:33:04;6.53;;;3.90;;
37647;SDS011;23490;53.656;10.076;2022-12-31T15:35:51;8.27;;;4.32;;
37647;SDS011;23490;53.656;10.076;2022-12-31T15:38:28;7.32;;;4.50;;
37647;SDS011;23490;53.656;10.076;2022-12-31T15:40:55;10.10;;;4.72;;
37647;SDS011;23490;53.656;10.076;2022-12-31T15:45:49;5.55;;;3.35;;
37647;SDS011;23490;53.656;10.076;2022-12-31T15:49:01;6.50;;;3.70;;
37647;SDS011;23490;53.656;10.076;2022-12-31T15:51:13;11.55;;;6.97;;
37647;SDS011;23490;53.656;10.076;2022-12-31T15:53:42;8.70;;;4.60;;
37647;SDS011;23490;53.656;10.076;2022-12-31T15:56:29;5.93;;;3.22;;
37647;SDS011;23490;53.656;10.076;2022-12-31T15:58:58;9.85;;;4.72;;
37647;SDS011;23490;53.656;10.076;2022-12-31T16:01:34;7.70;;;4.25;;
37647;SDS011;23490;53.656;10.076;2022-12-31T16:04:02;7.15;;;4.50;;
37647;SDS011;23490;53.656;10.076;2022-12-31T16:06:32;9.35;;;6.32;;
37647;SDS011;23490;53.656;10.076;2022-12-31T16:09:00;9.88;;;6.03;;
37647;SDS011;23490;53.656;10.076;2022-12-31T16:11:27;11.45;;;5.88;;
37647;SDS011;23490;53.656;10.076;2022-12-31T16:13:54;9.52;;;6.13;;
37647;SDS011;23490;53.656;10.076;2022-12-31T16:18:52;10.43;;;5.85;;
37647;SDS011;23490;53.656;10.076;2022-12-31T16:24:03;8.65;;;5.22;;
37647;SDS011;23490;53.656;10.076;2022-12-31T16:26:50;10.05;;;6.30;;
37647;SDS011;23490;53.656;10.076;2022-12-31T16:29:19;15.88;;;9.27;;
37647;SDS011;23490;53.656;10.076;2022-12-31T16:31:46;10.73;;;6.85;;
37647;SDS011;23490;53.656;10.076;2022-12-31T16:34:17;12.45;;;5.72;;
37647;SDS011;23490;53.656;10.076;2022-12-31T16:37:00;8.43;;;4.78;;
37647;SDS011;23490;53.656;10.076;2022-12-31T16:39:36;7.28;;;4.25;;
37647;SDS011;23490;53.656;10.076;2022-12-31T16:42:15;9.32;;;5.40;;
37647;SDS011;23490;53.656;10.076;2022-12-31T16:47:11;12.02;;;5.65;;
37647;SDS011;23490;53.656;10.076;2022-12-31T16:49:41;14.50;;;7.60;;
37647;SDS011;23490;53.656;10.076;2022-12-31T16:52:07;11.30;;;6.70;;
37647;SDS011;23490;53.656;10.076;2022-12-31T16:54:48;11.30;;;6.38;;
37647;SDS011;23490;53.656;10.076;2022-12-31T16:57:19;13.05;;;8.00;;
37647;SDS011;23490;53.656;10.076;2022-12-31T16:59:46;11.75;;;5.97;;
37647;SDS011;23490;53.656;10.076;2022-12-31T17:02:17;10.30;;;5.32;;
37647;SDS011;23490;53.656;10.076;2022-12-31T17:04:50;12.98;;;8.65;;
37647;SDS011;23490;53.656;10.076;2022-12-31T17:10:19;59.13;;;40.50;;
37647;SDS011;23490;53.656;10.076;2022-12-31T17:12:58;38.15;;;25.98;;
37647;SDS011;23490;53.656;10.076;2022-12-31T17:15:27;118.30;;;80.45;;
37647;SDS011;23490;53.656;10.076;2022-12-31T17:18:02;40.42;;;26.17;;
37647;SDS011;23490;53.656;10.076;2022-12-31T17:20:29;20.00;;;12.50;;
37647;SDS011;23490;53.656;10.076;2022-12-31T17:22:57;22.40;;;13.27;;
37647;SDS011;23490;53.656;10.076;2022-12-31T17:25:26;32.35;;;19.70;;
37647;SDS011;23490;53.656;10.076;2022-12-31T17:27:59;43.08;;;25.38;;
37647;SDS011;23490;53.656;10.076;2022-12-31T17:32:51;54.90;;;33.13;;
37647;SDS011;23490;53.656;10.076;2022-12-31T17:35:28;51.00;;;32.38;;
37647;SDS011;23490;53.656;10.076;2022-12-31T17:38:14;44.78;;;27.65;;
37647;SDS011;23490;53.656;10.076;2022-12-31T17:40:46;25.40;;;14.60;;
37647;SDS011;23490;53.656;10.076;2022-12-31T17:43:14;37.30;;;22.38;;
37647;SDS011;23490;53.656;10.076;2022-12-31T17:45:41;22.55;;;12.68;;
37647;SDS011;23490;53.656;10.076;2022-12-31T17:48:09;17.15;;;10.88;;
37647;SDS011;23490;53.656;10.076;2022-12-31T17:50:45;21.80;;;13.15;;
37647;SDS011;23490;53.656;10.076;2022-12-31T17:53:11;26.10;;;13.27;;
37647;SDS011;23490;53.656;10.076;2022-12-31T17:55:37;25.60;;;11.65;;
37647;SDS011;23490;53.656;10.076;2022-12-31T17:58:04;16.38;;;8.15;;
37647;SDS011;23490;53.656;10.076;2022-12-31T18:00:30;23.13;;;12.70;;
37647;SDS011;23490;53.656;10.076;2022-12-31T18:02:59;37.85;;;20.95;;
37647;SDS011;23490;53.656;10.076;2022-12-31T18:05:24;29.40;;;14.52;;
37647;SDS011;23490;53.656;10.076;2022-12-31T18:07:50;26.50;;;13.77;;
37647;SDS011;23490;53.656;10.076;2022-12-31T18:10:17;27.85;;;16.23;;
37647;SDS011;23490;53.656;10.076;2022-12-31T18:12:44;32.08;;;19.20;;
37647;SDS011;23490;53.656;10.076;2022-12-31T18:15:15;28.40;;;15.93;;
37647;SDS011;23490;53.656;10.076;2022-12-31T18:17:42;21.95;;;13.18;;
37647;SDS011;23490;53.656;10.076;2022-12-31T18:20:08;26.77;;;15.00;;
37647;SDS011;23490;53.656;10.076;2022-12-31T18:22:34;29.20;;;15.90;;
37647;SDS011;23490;53.656;10.076;2022-12-31T18:25:00;29.70;;;16.15;;
37647;SDS011;23490;53.656;10.076;2022-12-31T18:27:26;25.95;;;15.00;;
37647;SDS011;23490;53.656;10.076;2022-12-31T18:29:54;27.60;;;15.55;;
37647;SDS011;23490;53.656;10.076;2022-12-31T18:32:21;28.92;;;15.23;;
37647;SDS011;23490;53.656;10.076;2022-12-31T18:34:48;30.50;;;14.70;;
37647;SDS011;23490;53.656;10.076;2022-12-31T18:37:14;28.75;;;15.63;;
37647;SDS011;23490;53.656;10.076;2022-12-31T18:39:40;23.55;;;13.85;;
37647;SDS011;23490;53.656;10.076;2022-12-31T18:42:05;25.98;;;13.85;;
37647;SDS011;23490;53.656;10.076;2022-12-31T18:44:34;21.58;;;12.15;;
37647;SDS011;23490;53.656;10.076;2022-12-31T18:46:59;46.00;;;23.27;;
37647;SDS011;23490;53.656;10.076;2022-12-31T18:49:25;27.65;;;14.95;;
37647;SDS011;23490;53.656;10.076;2022-12-31T18:51:50;25.10;;;13.05;;
37647;SDS011;23490;53.656;10.076;2022-12-31T18:54:18;24.48;;;11.70;;